Time;durP1;ratioP1;P1;durP2;ratioP2;P2;SDS_P1;SDS_P2;PMS_P1;PMS_P2;Temp;Humidity;BMP_temperature;BMP_pressure;BME280_temperature;BME280_humidity;BME280_pressure;Samples;Min_cycle;Max_cycle;Signal;HPM_P1;HPM_P2
2022/09/29 00:01:08;;;;;;;5.72;3.05;;;8.60;79.30;;;;;;5029561;28;20056;-74
2022/09/29 00:03:37;;;;;;;6.20;3.58;;;8.60;79.50;;;;;;5030497;28;20082;-74
2022/09/29 00:06:10;;;;;;;5.30;3.33;;;8.60;79.60;;;;;;5031082;28;20058;-74
2022/09/29 00:08:37;;;;;;;4.40;2.70;;;8.60;79.80;;;;;;5031379;28;20269;-74
2022/09/29 00:11:07;;;;;;;6.68;3.20;;;8.60;80.10;;;;;;5029020;28;20050;-74
2022/09/29 00:13:34;;;;;;;5.72;3.28;;;8.60;80.30;;;;;;5029753;28;20848;-74
2022/09/29 00:16:03;;;;;;;5.63;3.13;;;8.60;80.20;;;;;;5028965;28;20129;-74
2022/09/29 00:18:32;;;;;;;6.70;3.07;;;8.60;80.40;;;;;;5030632;28;20054;-73
2022/09/29 00:21:01;;;;;;;4.63;2.72;;;8.50;80.40;;;;;;5029461;28;20269;-74
2022/09/29 00:23:29;;;;;;;5.30;2.60;;;8.50;80.40;;;;;;5031756;28;20495;-74
2022/09/29 00:26:04;;;;;;;5.72;3.10;;;8.60;80.40;;;;;;5036316;28;20070;-74
2022/09/29 00:28:32;;;;;;;5.50;2.42;;;8.50;80.40;;;;;;5037440;28;20057;-74
2022/09/29 00:31:00;;;;;;;4.73;2.30;;;8.50;80.30;;;;;;5036080;28;20046;-74
2022/09/29 00:33:30;;;;;;;3.78;1.92;;;8.50;80.20;;;;;;5035984;28;20273;-74
2022/09/29 00:35:58;;;;;;;4.07;2.15;;;8.50;80.10;;;;;;5037416;28;20057;-74
2022/09/29 00:38:26;;;;;;;5.03;2.20;;;8.50;80.20;;;;;;5037679;28;20057;-74
2022/09/29 00:40:53;;;;;;;5.22;2.63;;;8.40;80.20;;;;;;5035298;28;20061;-74
2022/09/29 00:43:22;;;;;;;4.77;2.30;;;8.40;80.20;;;;;;5036275;28;20487;-74
2022/09/29 00:45:49;;;;;;;3.80;2.15;;;8.50;80.20;;;;;;5036205;28;20336;-74
2022/09/29 00:48:20;;;;;;;3.53;2.03;;;8.50;80.10;;;;;;5037837;28;20049;-74
2022/09/29 00:50:52;;;;;;;4.43;2.30;;;8.50;80.00;;;;;;5035394;28;20050;-74
2022/09/29 00:53:22;;;;;;;4.32;2.00;;;8.50;79.90;;;;;;5035068;28;20520;-74
2022/09/29 00:55:53;;;;;;;4.37;2.50;;;8.50;79.80;;;;;;5036068;28;20538;-74
2022/09/29 00:58:28;;;;;;;4.15;2.08;;;8.50;79.70;;;;;;5036874;28;20264;-74
2022/09/29 01:00:55;;;;;;;4.05;1.83;;;8.50;79.70;;;;;;5035205;28;20050;-74
2022/09/29 01:03:25;;;;;;;3.65;1.67;;;8.50;79.40;;;;;;5035518;28;20488;-74
2022/09/29 01:05:57;;;;;;;4.50;1.70;;;8.50;79.40;;;;;;5036605;28;20512;-73
2022/09/29 01:08:27;;;;;;;3.27;1.60;;;8.50;79.30;;;;;;5035173;28;20060;-74
2022/09/29 01:10:55;;;;;;;3.67;1.42;;;8.50;79.20;;;;;;5035691;28;20249;-74
2022/09/29 01:13:23;;;;;;;3.97;1.55;;;8.50;79.10;;;;;;5035345;28;20584;-74
2022/09/29 01:15:50;;;;;;;3.40;1.50;;;8.50;79.10;;;;;;5035191;28;20590;-73
2022/09/29 01:18:17;;;;;;;3.80;1.70;;;8.50;79.00;;;;;;5034127;28;20484;-74
2022/09/29 01:20:52;;;;;;;3.70;1.83;;;8.50;78.90;;;;;;5036057;28;20057;-74
2022/09/29 01:23:53;;;;;;;4.20;2.30;;;8.50;78.70;;;;;;5035433;28;20285;-74
2022/09/29 01:26:55;;;;;;;4.78;2.00;;;8.50;78.50;;;;;;5032039;28;20061;-74
2022/09/29 01:30:03;;;;;;;3.67;2.08;;;8.40;78.40;;;;;;5035350;28;20531;-74
2022/09/29 01:32:43;;;;;;;3.55;1.83;;;8.40;78.20;;;;;;5026024;28;20057;-74
2022/09/29 01:35:19;;;;;;;5.33;1.73;;;8.30;78.30;;;;;;5033793;28;20077;-74
2022/09/29 01:38:02;;;;;;;3.33;1.75;;;8.30;78.40;;;;;;5032111;28;20328;-74
2022/09/29 01:40:35;;;;;;;3.92;1.70;;;8.30;78.40;;;;;;5031894;28;20281;-74
2022/09/29 01:43:07;;;;;;;2.80;1.23;;;8.30;78.40;;;;;;5033167;28;20140;-74
2022/09/29 01:45:38;;;;;;;2.92;0.98;;;8.30;78.30;;;;;;5031946;28;20571;-74
2022/09/29 01:48:10;;;;;;;2.90;1.00;;;8.20;78.20;;;;;;5032178;28;20085;-74
2022/09/29 01:50:42;;;;;;;2.55;0.88;;;8.30;78.10;;;;;;5031829;28;20264;-74
2022/09/29 01:53:13;;;;;;;2.47;0.95;;;8.30;77.90;;;;;;5031684;28;20050;-74
2022/09/29 01:55:44;;;;;;;2.28;0.65;;;8.20;77.80;;;;;;5032915;28;20085;-74
2022/09/29 01:58:18;;;;;;;3.13;0.85;;;8.20;77.70;;;;;;5031754;28;20054;-74
2022/09/29 02:00:50;;;;;;;3.23;0.67;;;8.20;77.50;;;;;;5029917;28;20074;-74
2022/09/29 02:03:25;;;;;;;3.70;1.13;;;8.20;76.90;;;;;;5031233;28;20273;-74
2022/09/29 02:05:54;;;;;;;2.90;1.10;;;8.10;76.80;;;;;;5033519;28;20054;-73
2022/09/29 02:08:28;;;;;;;2.78;0.98;;;8.00;76.70;;;;;;5031277;28;20057;-73
2022/09/29 02:11:01;;;;;;;2.83;1.10;;;7.90;76.90;;;;;;5031285;28;20053;-74
2022/09/29 02:13:31;;;;;;;3.00;1.20;;;7.80;77.10;;;;;;5031343;28;20046;-74
2022/09/29 02:15:59;;;;;;;3.40;1.40;;;7.80;77.20;;;;;;5031349;28;20276;-74
2022/09/29 02:18:33;;;;;;;5.03;1.70;;;7.70;77.30;;;;;;5032493;28;20050;-74
2022/09/29 02:21:01;;;;;;;5.95;1.88;;;7.60;77.50;;;;;;5030845;28;20054;-74
2022/09/29 02:23:28;;;;;;;3.90;1.70;;;7.60;77.60;;;;;;5031130;28;20540;-74
2022/09/29 02:25:58;;;;;;;4.57;1.67;;;7.60;77.70;;;;;;5031096;28;20104;-74
2022/09/29 02:28:25;;;;;;;5.13;1.65;;;7.60;77.80;;;;;;5031275;28;20265;-74
2022/09/29 02:30:52;;;;;;;6.38;1.60;;;7.60;77.80;;;;;;5032484;28;20080;-73
2022/09/29 02:33:21;;;;;;;5.72;1.70;;;7.60;77.70;;;;;;5031272;28;20046;-74
2022/09/29 02:36:02;;;;;;;5.70;1.20;;;7.60;77.80;;;;;;5029099;28;20056;-74
2022/09/29 02:38:36;;;;;;;4.90;1.50;;;7.60;77.90;;;;;;5031556;28;20572;-73
2022/09/29 02:41:12;;;;;;;4.13;1.58;;;7.50;77.80;;;;;;5032403;28;20720;-74
2022/09/29 02:43:59;;;;;;;4.25;1.60;;;7.50;77.80;;;;;;5031053;28;20532;-74
2022/09/29 02:46:39;;;;;;;5.25;1.63;;;7.50;77.90;;;;;;5030354;28;20297;-73
2022/09/29 02:49:34;;;;;;;4.85;1.70;;;7.50;77.80;;;;;;5031803;28;20057;-74
2022/09/29 02:52:12;;;;;;;15.57;2.23;;;7.60;77.80;;;;;;5032204;28;20128;-73
2022/09/29 02:54:51;;;;;;;5.10;1.42;;;7.60;77.70;;;;;;5030791;28;20265;-74
2022/09/29 02:57:27;;;;;;;6.88;1.98;;;7.50;77.50;;;;;;5031906;28;20053;-74
2022/09/29 03:00:06;;;;;;;6.88;2.03;;;7.50;77.50;;;;;;5030392;28;20045;-74
2022/09/29 03:02:33;;;;;;;8.05;2.45;;;7.50;77.70;;;;;;5030418;28;20409;-74
2022/09/29 03:05:00;;;;;;;13.47;2.07;;;7.50;77.90;;;;;;5031712;28;20050;-74
2022/09/29 03:07:28;;;;;;;6.15;1.73;;;7.40;77.90;;;;;;5032086;28;20368;-74
2022/09/29 03:09:55;;;;;;;4.43;1.98;;;7.40;77.80;;;;;;5030318;28;20050;-74
2022/09/29 03:12:22;;;;;;;7.53;2.03;;;7.40;77.90;;;;;;5030513;28;20492;-74
2022/09/29 03:14:49;;;;;;;7.07;2.00;;;7.30;78.10;;;;;;5031835;28;20129;-74
2022/09/29 03:17:16;;;;;;;3.97;2.00;;;7.40;78.10;;;;;;5030140;28;20054;-73
2022/09/29 03:19:43;;;;;;;3.65;1.58;;;7.40;78.20;;;;;;5031731;28;20254;-74
2022/09/29 03:22:09;;;;;;;3.60;1.45;;;7.30;78.00;;;;;;5031772;28;20710;-73
2022/09/29 03:24:38;;;;;;;3.50;1.50;;;7.30;78.00;;;;;;5031605;28;20054;-73
2022/09/29 03:27:05;;;;;;;4.80;1.60;;;7.30;78.10;;;;;;5030307;28;20523;-74
2022/09/29 03:29:32;;;;;;;3.90;1.87;;;7.20;78.10;;;;;;5029984;28;20042;-73
2022/09/29 03:31:59;;;;;;;5.00;1.42;;;7.20;78.10;;;;;;5030252;28;20819;-73
2022/09/29 03:34:26;;;;;;;3.85;1.90;;;7.20;78.10;;;;;;5031541;28;20046;-73
2022/09/29 03:36:53;;;;;;;4.10;1.77;;;7.30;78.10;;;;;;5031397;28;20255;-73
2022/09/29 03:39:20;;;;;;;5.68;2.35;;;7.20;78.20;;;;;;5029700;28;20164;-73
2022/09/29 03:41:48;;;;;;;4.30;2.00;;;7.20;78.10;;;;;;5031515;28;20046;-73
2022/09/29 03:44:15;;;;;;;6.55;2.33;;;7.30;78.00;;;;;;5030025;28;20351;-74
2022/09/29 03:46:42;;;;;;;4.97;2.38;;;7.30;78.00;;;;;;5028393;28;20133;-73
2022/09/29 03:49:10;;;;;;;6.03;2.25;;;7.30;78.00;;;;;;5029834;28;20054;-74
2022/09/29 03:51:37;;;;;;;4.20;2.20;;;7.30;77.80;;;;;;5031493;28;20062;-74
2022/09/29 03:54:05;;;;;;;5.90;2.70;;;7.20;77.80;;;;;;5031247;28;20136;-74
2022/09/29 03:56:32;;;;;;;4.93;2.55;;;7.20;77.70;;;;;;5029905;28;20331;-73
2022/09/29 03:59:00;;;;;;;5.10;2.50;;;7.20;77.80;;;;;;5029854;28;20060;-73
2022/09/29 04:01:28;;;;;;;5.75;2.25;;;7.20;77.90;;;;;;5029892;28;20052;-73
2022/09/29 04:03:55;;;;;;;5.95;2.20;;;7.20;77.80;;;;;;5029441;28;20049;-73
2022/09/29 04:06:22;;;;;;;6.10;1.40;;;7.20;77.90;;;;;;5031083;28;20060;-73
2022/09/29 04:08:49;;;;;;;3.97;1.33;;;7.20;77.80;;;;;;5029580;28;20248;-74
2022/09/29 04:11:16;;;;;;;3.53;1.38;;;7.20;77.70;;;;;;5029701;28;20057;-74
2022/09/29 04:13:43;;;;;;;7.65;1.85;;;7.20;77.40;;;;;;5031235;28;20312;-73
2022/09/29 04:16:11;;;;;;;4.13;1.83;;;7.10;77.50;;;;;;5029487;28;20065;-74
2022/09/29 04:18:38;;;;;;;7.90;1.70;;;7.00;77.60;;;;;;5029687;28;20065;-74
2022/09/29 04:21:06;;;;;;;4.45;2.00;;;7.00;77.70;;;;;;5029327;28;20348;-73
2022/09/29 04:23:34;;;;;;;4.80;2.20;;;7.00;77.90;;;;;;5030923;28;20046;-73
2022/09/29 04:26:01;;;;;;;4.45;1.98;;;7.00;78.00;;;;;;5029029;28;20165;-73
2022/09/29 04:28:30;;;;;;;3.55;1.92;;;7.00;78.10;;;;;;5029518;28;20046;-74
2022/09/29 04:30:57;;;;;;;5.83;2.07;;;7.00;78.00;;;;;;5030984;28;20990;-73
2022/09/29 04:33:26;;;;;;;5.72;2.03;;;7.00;77.90;;;;;;5030577;28;20340;-73
2022/09/29 04:35:52;;;;;;;7.50;2.10;;;7.00;77.90;;;;;;5029493;28;20173;-73
2022/09/29 04:38:19;;;;;;;4.65;1.98;;;7.00;77.80;;;;;;5030799;28;20064;-73
2022/09/29 04:40:47;;;;;;;6.05;2.10;;;6.90;77.80;;;;;;5012586;28;20046;-73
2022/09/29 04:43:15;;;;;;;4.47;2.20;;;6.90;77.90;;;;;;5030343;28;20058;-73
2022/09/29 04:45:41;;;;;;;7.38;2.40;;;6.90;77.90;;;;;;5029421;28;20264;-74
2022/09/29 04:48:08;;;;;;;7.72;2.40;;;7.00;77.80;;;;;;5030744;28;20062;-74
2022/09/29 04:50:37;;;;;;;6.20;2.78;;;7.00;77.70;;;;;;5028886;28;20129;-74
2022/09/29 04:53:04;;;;;;;4.43;2.17;;;6.90;77.60;;;;;;5028934;28;20430;-73
2022/09/29 04:55:31;;;;;;;5.43;2.40;;;6.90;77.50;;;;;;5029287;28;20524;-74
2022/09/29 04:57:57;;;;;;;3.90;2.40;;;6.90;77.60;;;;;;5030813;28;20724;-73
2022/09/29 05:00:24;;;;;;;5.88;2.60;;;6.90;77.60;;;;;;5028580;28;20061;-73
2022/09/29 05:02:51;;;;;;;6.82;2.13;;;6.90;77.50;;;;;;5027210;28;20141;-73
2022/09/29 05:05:18;;;;;;;5.90;2.10;;;6.90;77.40;;;;;;5028518;28;20132;-74
2022/09/29 05:07:47;;;;;;;3.97;1.90;;;6.90;77.20;;;;;;5028433;28;20053;-73
2022/09/29 05:10:14;;;;;;;4.80;2.67;;;6.80;77.30;;;;;;5031895;28;20292;-73
2022/09/29 05:12:41;;;;;;;4.78;2.58;;;6.70;77.40;;;;;;5031942;28;20080;-73
2022/09/29 05:15:09;;;;;;;5.18;2.85;;;6.70;77.40;;;;;;5030661;28;20060;-74
2022/09/29 05:17:36;;;;;;;5.38;2.90;;;6.70;77.60;;;;;;5031092;28;20463;-74
2022/09/29 05:20:03;;;;;;;7.03;2.57;;;6.60;77.70;;;;;;5032505;28;20068;-73
2022/09/29 05:22:31;;;;;;;4.03;2.50;;;6.60;77.70;;;;;;5030677;28;20270;-74
2022/09/29 05:25:00;;;;;;;4.25;2.55;;;6.70;77.50;;;;;;5031251;28;20060;-74
2022/09/29 05:27:27;;;;;;;4.93;2.55;;;6.60;77.50;;;;;;5032023;28;20512;-74
2022/09/29 05:29:53;;;;;;;4.13;2.20;;;6.60;77.50;;;;;;5030798;28;20078;-74
2022/09/29 05:32:20;;;;;;;3.40;1.97;;;6.60;77.60;;;;;;5027717;28;20050;-74
2022/09/29 05:34:49;;;;;;;4.40;2.58;;;6.60;77.50;;;;;;5027599;28;20282;-74
2022/09/29 05:37:17;;;;;;;4.55;2.38;;;6.60;77.30;;;;;;5028624;28;20055;-74
2022/09/29 05:39:45;;;;;;;4.30;2.85;;;6.60;77.50;;;;;;5031010;28;20050;-73
2022/09/29 05:42:13;;;;;;;4.88;2.63;;;6.50;77.40;;;;;;4989185;28;20060;-73
2022/09/29 05:44:40;;;;;;;3.97;2.60;;;6.60;77.40;;;;;;5007740;28;20058;-74
2022/09/29 05:47:07;;;;;;;5.50;2.85;;;6.60;77.40;;;;;;5031299;28;20253;-74
2022/09/29 05:49:35;;;;;;;7.57;2.78;;;6.60;77.40;;;;;;5029784;28;20054;-74
2022/09/29 05:52:02;;;;;;;5.65;2.67;;;6.50;77.30;;;;;;5030557;28;20108;-73
2022/09/29 05:54:29;;;;;;;4.85;2.80;;;6.50;77.20;;;;;;5030038;28;20136;-73
2022/09/29 05:56:56;;;;;;;5.50;3.70;;;6.50;77.20;;;;;;5030880;28;20054;-74
2022/09/29 05:59:24;;;;;;;5.30;3.00;;;6.50;77.30;;;;;;5031214;28;20276;-74
2022/09/29 06:01:51;;;;;;;5.13;3.15;;;6.50;77.50;;;;;;5027754;28;20057;-73
2022/09/29 06:04:18;;;;;;;6.28;3.65;;;6.50;77.60;;;;;;5026090;28;20078;-73
2022/09/29 06:06:47;;;;;;;5.78;3.67;;;6.50;77.70;;;;;;5021548;28;20572;-73
2022/09/29 06:09:14;;;;;;;7.87;3.90;;;6.50;77.70;;;;;;5028284;28;20065;-74
2022/09/29 06:11:41;;;;;;;5.93;3.50;;;6.50;77.80;;;;;;5030877;28;20281;-73
2022/09/29 06:14:08;;;;;;;7.50;3.67;;;6.50;77.70;;;;;;5030345;28;20049;-74
2022/09/29 06:16:36;;;;;;;6.90;3.40;;;6.50;77.70;;;;;;5029485;28;20057;-73
2022/09/29 06:19:04;;;;;;;7.88;3.92;;;6.50;77.80;;;;;;5028469;28;20504;-74
2022/09/29 06:21:33;;;;;;;8.40;4.43;;;6.50;77.70;;;;;;5026096;28;20054;-73
2022/09/29 06:24:01;;;;;;;8.63;3.85;;;6.50;77.80;;;;;;5026824;28;20292;-74
2022/09/29 06:26:28;;;;;;;10.82;4.63;;;6.40;77.90;;;;;;5031355;28;20058;-73
2022/09/29 06:28:57;;;;;;;9.82;4.60;;;6.40;78.00;;;;;;5031552;28;20046;-73
2022/09/29 06:31:26;;;;;;;8.98;4.15;;;6.40;78.10;;;;;;5032142;28;20054;-74
2022/09/29 06:33:57;;;;;;;9.57;4.63;;;6.50;78.20;;;;;;5031590;28;20060;-73
2022/09/29 06:39:13;;;;;;;9.95;5.00;;;6.40;78.30;;;;;;5029341;28;20057;-73
2022/09/29 06:41:43;;;;;;;9.50;4.30;;;6.50;78.50;;;;;;5031352;28;20054;-73
2022/09/29 06:44:10;;;;;;;12.10;4.85;;;6.50;78.60;;;;;;5029588;28;20057;-73
2022/09/29 06:46:37;;;;;;;11.80;5.33;;;6.50;78.70;;;;;;5031822;28;20132;-73
2022/09/29 06:49:05;;;;;;;10.52;5.00;;;6.50;78.70;;;;;;5030783;28;20273;-73
2022/09/29 06:51:32;;;;;;;13.52;6.05;;;6.50;78.90;;;;;;5031522;28;20082;-74
2022/09/29 06:53:59;;;;;;;18.67;7.68;;;6.50;79.00;;;;;;5029884;28;20050;-74
2022/09/29 06:56:26;;;;;;;17.35;7.38;;;6.40;79.10;;;;;;5030405;28;20516;-74
2022/09/29 06:58:53;;;;;;;17.63;8.13;;;6.40;79.40;;;;;;5027450;28;20053;-73
2022/09/29 07:01:20;;;;;;;18.08;8.02;;;6.40;79.50;;;;;;5028908;28;20749;-73
2022/09/29 07:03:47;;;;;;;16.45;7.55;;;6.40;79.70;;;;;;5030189;28;20123;-72
2022/09/29 07:06:15;;;;;;;15.32;7.05;;;6.40;80.00;;;;;;5030557;28;20061;-72
2022/09/29 07:08:42;;;;;;;14.02;7.45;;;6.40;80.10;;;;;;5029055;28;20088;-73
2022/09/29 07:11:10;;;;;;;15.37;7.47;;;6.40;80.50;;;;;;5025838;28;20121;-72
2022/09/29 07:13:37;;;;;;;14.55;7.88;;;6.40;80.80;;;;;;5029257;28;20898;-72
2022/09/29 07:16:06;;;;;;;14.40;7.25;;;6.40;81.20;;;;;;5028196;28;20081;-72
2022/09/29 07:18:36;;;;;;;15.70;7.90;;;6.40;81.20;;;;;;5030106;28;20053;-73
2022/09/29 07:21:03;;;;;;;14.45;7.60;;;6.40;81.50;;;;;;5028923;28;20136;-72
2022/09/29 07:23:32;;;;;;;15.93;8.27;;;6.40;82.20;;;;;;5030365;28;20085;-73
2022/09/29 07:25:59;;;;;;;14.48;7.82;;;6.50;81.90;;;;;;5028228;28;20246;-73
2022/09/29 07:28:27;;;;;;;14.23;8.20;;;6.50;82.10;;;;;;5028525;28;20070;-73
2022/09/29 07:31:01;;;;;;;14.20;8.07;;;6.60;82.20;;;;;;5026016;28;20121;-73
2022/09/29 07:33:28;;;;;;;15.07;8.18;;;6.60;82.50;;;;;;5025711;28;20052;-73
2022/09/29 07:35:55;;;;;;;15.50;8.43;;;6.70;82.50;;;;;;5025163;28;20054;-73
2022/09/29 07:38:21;;;;;;;12.20;7.40;;;6.70;82.90;;;;;;5028025;28;20336;-73
2022/09/29 07:40:50;;;;;;;13.40;8.70;;;6.70;83.30;;;;;;5028598;28;20050;-74
2022/09/29 07:43:17;;;;;;;12.95;8.25;;;6.80;83.40;;;;;;5028225;28;20136;-73
2022/09/29 07:45:48;;;;;;;13.65;8.27;;;6.90;83.40;;;;;;5030219;28;20054;-75
2022/09/29 07:48:15;;;;;;;14.77;8.10;;;6.90;83.70;;;;;;5019586;28;20057;-73
2022/09/29 07:50:43;;;;;;;13.98;7.53;;;7.00;83.80;;;;;;5029742;28;20277;-73
2022/09/29 07:53:10;;;;;;;12.85;8.02;;;7.00;83.90;;;;;;5025940;28;20042;-74
2022/09/29 07:55:37;;;;;;;14.70;8.40;;;7.10;84.10;;;;;;5028393;28;20124;-73
2022/09/29 07:58:06;;;;;;;13.45;7.95;;;7.20;84.10;;;;;;5029342;28;20574;-73
2022/09/29 08:00:33;;;;;;;13.33;8.30;;;7.20;84.30;;;;;;5030130;28;20072;-74
2022/09/29 08:03:02;;;;;;;15.13;8.57;;;7.30;84.50;;;;;;5028125;28;20273;-74
2022/09/29 08:05:30;;;;;;;13.50;8.05;;;7.40;84.50;;;;;;5028376;28;20424;-74
2022/09/29 08:07:57;;;;;;;12.20;7.80;;;7.50;84.70;;;;;;5029764;28;20085;-73
2022/09/29 08:10:26;;;;;;;14.00;8.18;;;7.50;84.80;;;;;;5028519;28;20054;-74
2022/09/29 08:12:53;;;;;;;14.50;7.97;;;7.50;84.80;;;;;;5028523;28;20237;-73
2022/09/29 08:15:22;;;;;;;14.82;8.48;;;7.60;85.00;;;;;;5027885;28;20333;-73
2022/09/29 08:17:51;;;;;;;12.57;7.90;;;7.70;85.20;;;;;;5029422;28;20056;-73
2022/09/29 08:20:18;;;;;;;13.60;7.63;;;7.80;85.30;;;;;;5026892;28;20174;-73
2022/09/29 08:22:47;;;;;;;13.80;8.23;;;7.80;85.50;;;;;;5024624;28;20052;-73
2022/09/29 08:25:15;;;;;;;13.80;7.97;;;7.90;85.60;;;;;;5027964;28;20061;-72
2022/09/29 08:27:41;;;;;;;13.77;7.90;;;8.00;85.80;;;;;;5028927;28;20278;-73
2022/09/29 08:30:10;;;;;;;13.15;7.45;;;8.00;85.70;;;;;;5029677;28;20129;-73
2022/09/29 08:32:38;;;;;;;13.77;7.80;;;8.10;85.70;;;;;;5029733;28;20500;-73
2022/09/29 08:35:06;;;;;;;11.57;7.05;;;8.20;85.80;;;;;;5028411;28;20054;-73
2022/09/29 08:37:33;;;;;;;12.60;8.23;;;8.30;85.90;;;;;;5028344;28;20053;-73
2022/09/29 08:40:00;;;;;;;14.52;7.93;;;8.30;86.00;;;;;;5028411;28;20254;-73
2022/09/29 08:42:42;;;;;;;12.27;7.35;;;8.40;86.10;;;;;;5028614;28;20054;-73
2022/09/29 08:45:16;;;;;;;12.43;8.05;;;8.50;86.20;;;;;;5030554;28;20643;-73
2022/09/29 08:47:47;;;;;;;13.73;8.18;;;8.60;86.30;;;;;;5033369;28;20093;-73
2022/09/29 08:50:22;;;;;;;13.50;8.70;;;8.60;86.40;;;;;;5028067;28;20046;-73
2022/09/29 08:52:54;;;;;;;15.23;9.50;;;8.70;86.70;;;;;;5030371;28;20285;-73
2022/09/29 08:55:26;;;;;;;11.90;7.63;;;8.80;86.80;;;;;;5031368;28;20562;-73
2022/09/29 08:57:57;;;;;;;13.68;8.57;;;8.90;87.00;;;;;;5029634;28;20046;-73
2022/09/29 09:00:32;;;;;;;14.75;8.90;;;9.00;87.20;;;;;;5030518;28;20085;-73
2022/09/29 09:03:12;;;;;;;14.37;8.87;;;9.00;87.40;;;;;;5029549;28;20048;-72
2022/09/29 09:06:17;;;;;;;15.05;9.18;;;9.20;87.40;;;;;;5029014;28;20245;-73
2022/09/29 09:09:01;;;;;;;10.52;5.97;;;9.20;87.50;;;;;;5028721;28;20046;-73
2022/09/29 09:11:38;;;;;;;10.63;6.22;;;9.40;87.60;;;;;;5030932;28;20125;-73
2022/09/29 09:14:18;;;;;;;10.95;6.47;;;9.40;87.60;;;;;;5030350;28;20060;-73
2022/09/29 09:16:54;;;;;;;9.37;5.40;;;9.50;87.50;;;;;;5031608;28;20516;-73
2022/09/29 09:19:54;;;;;;;11.18;5.57;;;9.60;87.30;;;;;;5032327;28;20258;-73
2022/09/29 09:22:22;;;;;;;10.80;5.78;;;9.70;87.30;;;;;;5031182;28;20536;-73
2022/09/29 09:24:56;;;;;;;11.13;5.97;;;9.80;87.10;;;;;;5030965;28;20348;-73
2022/09/29 09:27:30;;;;;;;9.10;5.40;;;10.00;87.10;;;;;;5030003;28;20046;-73
2022/09/29 09:30:04;;;;;;;10.17;6.20;;;10.00;87.00;;;;;;5028330;28;20060;-73
2022/09/29 09:32:37;;;;;;;10.70;5.88;;;10.10;87.00;;;;;;5011321;28;20266;-74
2022/09/29 09:35:27;;;;;;;9.32;5.80;;;10.20;87.00;;;;;;5023282;28;20096;-73
2022/09/29 09:37:59;;;;;;;11.55;6.72;;;10.30;86.90;;;;;;5032515;28;20144;-73
2022/09/29 09:40:30;;;;;;;10.85;6.00;;;10.40;86.80;;;;;;5028078;28;20052;-73
2022/09/29 09:43:04;;;;;;;8.70;5.43;;;10.50;86.60;;;;;;5026787;28;20168;-74
2022/09/29 09:45:37;;;;;;;8.45;5.60;;;10.60;86.40;;;;;;5029297;28;20762;-73
2022/09/29 09:48:12;;;;;;;8.23;5.03;;;10.70;85.90;;;;;;5026979;28;20501;-73
2022/09/29 09:50:42;;;;;;;9.88;5.82;;;10.80;85.70;;;;;;5030051;28;20585;-73
2022/09/29 09:53:15;;;;;;;9.40;6.10;;;10.90;85.80;;;;;;5029614;28;20058;-73
2022/09/29 09:55:42;;;;;;;10.17;5.93;;;11.00;85.80;;;;;;5030219;28;20042;-73
2022/09/29 09:58:26;;;;;;;9.05;5.82;;;11.10;85.60;;;;;;5031725;28;20249;-74
2022/09/29 10:00:57;;;;;;;9.95;5.00;;;11.10;85.40;;;;;;5029482;28;20050;-73
2022/09/29 10:03:24;;;;;;;8.25;4.90;;;11.30;85.10;;;;;;5027885;28;20054;-74
2022/09/29 10:05:52;;;;;;;7.90;5.43;;;11.40;84.80;;;;;;5029347;28;20124;-73
2022/09/29 10:08:24;;;;;;;9.90;5.20;;;11.40;84.60;;;;;;5028473;28;20058;-74
2022/09/29 10:10:52;;;;;;;7.38;4.78;;;11.50;84.60;;;;;;5028932;28;20258;-74
2022/09/29 10:13:20;;;;;;;8.40;5.40;;;11.60;84.40;;;;;;5029705;28;20445;-73
2022/09/29 10:15:52;;;;;;;8.95;5.32;;;11.70;84.00;;;;;;5030256;28;20128;-73
2022/09/29 10:18:23;;;;;;;9.05;5.43;;;11.80;83.80;;;;;;5030838;28;20049;-73
2022/09/29 10:20:50;;;;;;;8.40;4.70;;;11.90;83.50;;;;;;5027686;28;20538;-73
2022/09/29 10:23:31;;;;;;;8.80;4.80;;;11.90;83.40;;;;;;5029531;28;20833;-73
2022/09/29 10:26:02;;;;;;;7.82;4.97;;;12.00;83.40;;;;;;5030553;28;20056;-73
2022/09/29 10:28:38;;;;;;;7.70;4.78;;;12.10;83.30;;;;;;5011647;28;20056;-74
2022/09/29 10:31:17;;;;;;;8.27;4.90;;;12.20;82.90;;;;;;5040682;28;20498;-74
2022/09/29 10:33:48;;;;;;;7.57;5.17;;;12.30;82.60;;;;;;5039051;28;20053;-73
2022/09/29 10:36:17;;;;;;;9.32;4.95;;;12.40;82.50;;;;;;5030253;28;20692;-73
2022/09/29 10:38:49;;;;;;;7.78;4.15;;;12.50;82.30;;;;;;5030369;28;20057;-73
2022/09/29 10:41:18;;;;;;;7.22;4.25;;;12.50;82.20;;;;;;5029700;28;20068;-74
2022/09/29 10:43:48;;;;;;;7.45;4.50;;;12.60;81.60;;;;;;5027706;28;20610;-73
2022/09/29 10:46:47;;;;;;;7.47;4.33;;;12.70;81.80;;;;;;5030241;28;20064;-74
2022/09/29 10:49:15;;;;;;;7.18;4.00;;;12.80;81.50;;;;;;5028616;28;20261;-73
2022/09/29 10:51:52;;;;;;;7.63;3.97;;;12.90;81.40;;;;;;5029314;28;20084;-73
2022/09/29 10:54:24;;;;;;;6.75;4.03;;;13.00;81.00;;;;;;5029763;28;20133;-73
2022/09/29 10:56:51;;;;;;;5.90;3.65;;;13.10;80.60;;;;;;5028838;28;20050;-74
2022/09/29 10:59:19;;;;;;;5.30;3.00;;;13.10;80.50;;;;;;5029786;28;20136;-73
2022/09/29 11:01:50;;;;;;;6.70;3.85;;;13.20;80.10;;;;;;5030884;28;20304;-73
2022/09/29 11:04:22;;;;;;;5.57;3.10;;;13.30;80.00;;;;;;5027933;28;20149;-72
2022/09/29 11:06:49;;;;;;;6.15;3.70;;;13.30;79.60;;;;;;5029111;28;20050;-73
2022/09/29 11:09:37;;;;;;;7.10;4.00;;;13.50;79.50;;;;;;5012596;28;20056;-73
2022/09/29 11:12:05;;;;;;;6.47;3.57;;;13.50;79.20;;;;;;5030933;28;20509;-73
2022/09/29 11:14:40;;;;;;;6.03;3.40;;;13.60;78.90;;;;;;5029439;28;20372;-73
2022/09/29 11:17:21;;;;;;;6.20;3.03;;;13.70;78.50;;;;;;5029858;28;20420;-73
2022/09/29 11:19:49;;;;;;;5.68;3.40;;;13.80;78.10;;;;;;5028982;28;20105;-72
2022/09/29 11:22:37;;;;;;;6.50;3.40;;;13.90;77.50;;;;;;5028607;28;20601;-73
2022/09/29 11:25:32;;;;;;;5.20;3.30;;;13.90;77.00;;;;;;5016637;28;20516;-73
2022/09/29 11:28:15;;;;;;;5.20;3.05;;;14.00;76.60;;;;;;5045257;28;20265;-73
2022/09/29 11:30:52;;;;;;;5.30;2.85;;;14.10;76.00;;;;;;5026364;28;20093;-73
2022/09/29 11:33:29;;;;;;;4.93;2.50;;;14.10;75.70;;;;;;5024010;28;20069;-73
2022/09/29 11:36:03;;;;;;;5.82;2.40;;;14.20;75.80;;;;;;5029288;28;20070;-73
2022/09/29 11:38:47;;;;;;;4.30;2.00;;;14.30;75.30;;;;;;5027065;28;20054;-74
2022/09/29 11:41:47;;;;;;;4.78;1.73;;;14.30;74.20;;;;;;5028719;28;20249;-71
2022/09/29 11:44:47;;;;;;;3.97;2.03;;;14.40;72.50;;;;;;5039468;28;20053;-74
2022/09/29 11:47:27;;;;;;;4.32;1.80;;;14.40;73.30;;;;;;5028623;28;20054;-73
2022/09/29 11:50:07;;;;;;;4.63;1.83;;;14.50;73.50;;;;;;5025789;28;20642;-73
2022/09/29 11:52:58;;;;;;;3.50;1.53;;;14.60;73.30;;;;;;5028397;28;20514;-73
2022/09/29 11:55:36;;;;;;;3.38;1.60;;;14.60;73.00;;;;;;5025570;28;20268;-73
2022/09/29 11:58:20;;;;;;;3.78;1.77;;;14.80;73.00;;;;;;5025407;28;20483;-73
2022/09/29 12:01:01;;;;;;;3.45;1.30;;;14.80;72.00;;;;;;5023681;28;20113;-73
2022/09/29 12:03:35;;;;;;;3.72;1.08;;;14.90;71.40;;;;;;5027562;28;20061;-73
2022/09/29 12:06:28;;;;;;;4.30;1.03;;;15.00;71.40;;;;;;5026614;28;20125;-74
2022/09/29 12:09:06;;;;;;;3.42;1.20;;;15.00;70.50;;;;;;5030162;28;20286;-74
2022/09/29 12:11:41;;;;;;;3.53;1.20;;;15.20;69.10;;;;;;5028027;28;20181;-73
2022/09/29 12:14:15;;;;;;;3.22;1.20;;;15.20;69.20;;;;;;5028368;28;20053;-73
2022/09/29 12:16:50;;;;;;;3.40;1.05;;;15.30;69.10;;;;;;5030020;28;20088;-73
2022/09/29 12:19:22;;;;;;;3.93;1.20;;;15.40;68.50;;;;;;5027865;28;20116;-74
2022/09/29 12:21:51;;;;;;;2.70;0.90;;;15.50;67.20;;;;;;5029769;28;20375;-73
2022/09/29 12:24:33;;;;;;;3.75;0.95;;;15.50;67.00;;;;;;5026105;28;20169;-74
2022/09/29 12:27:02;;;;;;;4.05;1.23;;;15.60;67.50;;;;;;5026316;28;20085;-74
2022/09/29 12:29:35;;;;;;;3.80;1.58;;;15.60;67.70;;;;;;5028379;28;20437;-74
2022/09/29 12:32:08;;;;;;;3.47;1.70;;;15.60;66.40;;;;;;5028858;28;20046;-74
2022/09/29 12:34:41;;;;;;;3.60;1.70;;;15.60;65.60;;;;;;5028976;28;20296;-74
2022/09/29 12:37:16;;;;;;;3.45;1.42;;;15.60;65.70;;;;;;5028663;28;20052;-74
2022/09/29 12:39:50;;;;;;;3.63;1.63;;;15.60;65.00;;;;;;5029434;28;20089;-74
2022/09/29 12:42:40;;;;;;;3.55;1.23;;;15.50;65.30;;;;;;5027912;28;20092;-74
2022/09/29 12:45:14;;;;;;;3.43;1.50;;;15.50;65.60;;;;;;5024897;28;20056;-74
2022/09/29 12:48:01;;;;;;;3.58;1.38;;;15.40;65.80;;;;;;5008864;28;20281;-75
2022/09/29 12:50:33;;;;;;;4.45;1.60;;;15.40;65.90;;;;;;5038707;28;20054;-74
2022/09/29 12:53:07;;;;;;;3.78;1.38;;;15.40;65.50;;;;;;5028936;28;20152;-74
2022/09/29 12:55:43;;;;;;;3.10;1.50;;;15.40;65.40;;;;;;5024124;28;20088;-75
2022/09/29 12:58:18;;;;;;;5.07;1.40;;;15.40;65.60;;;;;;5026348;28;20129;-74
2022/09/29 13:00:53;;;;;;;3.33;1.27;;;15.40;65.70;;;;;;5027372;28;20316;-74
2022/09/29 13:03:59;;;;;;;2.95;1.00;;;15.40;65.50;;;;;;5029562;28;20056;-74
2022/09/29 13:07:00;;;;;;;3.10;1.38;;;15.40;65.50;;;;;;5028748;28;20542;-74
2022/09/29 13:09:43;;;;;;;2.92;0.98;;;15.50;65.30;;;;;;5021786;28;20516;-74
2022/09/29 13:12:30;;;;;;;4.03;1.10;;;15.50;65.70;;;;;;5029237;28;20053;-74
2022/09/29 13:15:24;;;;;;;3.10;0.95;;;15.50;65.80;;;;;;5025304;28;20317;-74
2022/09/29 13:18:20;;;;;;;2.70;0.80;;;15.50;65.80;;;;;;5026875;28;20512;-74
2022/09/29 13:21:04;;;;;;;2.53;0.50;;;15.60;65.50;;;;;;5041313;28;20056;-73